Time;durP1;ratioP1;P1;durP2;ratioP2;P2;SDS_P1;SDS_P2;PMS_P1;PMS_P2;Temp;Humidity;BMP_temperature;BMP_pressure;BME280_temperature;BME280_humidity;BME280_pressure;Samples;Min_cycle;Max_cycle;Signal;HPM_P1;HPM_P2
2021/03/18 00:02:12;;;;;;;20.95;10.58;;;;;;;-0.14;63.95;100505.98;147485;1147;104551;-79
2021/03/18 00:05:16;;;;;;;20.30;10.13;;;;;;;-0.17;64.21;100506.16;147584;1146;104722;-79
2021/03/18 00:08:20;;;;;;;18.75;8.23;;;;;;;-0.22;64.40;100501.13;147627;1147;104565;-75
2021/03/18 00:11:24;;;;;;;21.75;8.78;;;;;;;-0.26;65.17;100509.25;147657;1147;104490;-75
2021/03/18 00:14:28;;;;;;;22.75;9.98;;;;;;;-0.26;63.69;100504.00;147567;1147;104579;-76
2021/03/18 00:17:31;;;;;;;17.62;8.28;;;;;;;-0.28;64.68;100514.56;147666;1147;104576;-75
2021/03/18 00:20:34;;;;;;;18.25;8.13;;;;;;;-0.32;64.27;100512.19;147550;1147;104526;-75
2021/03/18 00:23:38;;;;;;;16.23;7.47;;;;;;;-0.37;65.07;100511.56;147663;1147;104579;-79
2021/03/18 00:26:41;;;;;;;33.08;11.20;;;;;;;-0.34;64.20;100508.80;147540;1147;104816;-78
2021/03/18 00:29:44;;;;;;;92.73;29.07;;;;;;;-0.27;64.30;100505.78;147562;1147;104556;-75
2021/03/18 00:32:49;;;;;;;71.62;23.70;;;;;;;-0.20;65.20;100501.91;147651;1147;106023;-73
2021/03/18 00:35:53;;;;;;;30.80;13.57;;;;;;;-0.18;64.72;100493.12;147730;1147;104617;-73
2021/03/18 00:38:57;;;;;;;56.93;18.83;;;;;;;-0.24;64.66;100499.53;147618;1147;104451;-76
2021/03/18 00:42:01;;;;;;;22.50;9.65;;;;;;;-0.25;64.74;100508.30;147527;1148;104547;-74
2021/03/18 00:45:06;;;;;;;26.70;10.80;;;;;;;-0.32;64.51;100501.70;147724;1147;104505;-75
2021/03/18 00:48:12;;;;;;;25.20;9.43;;;;;;;-0.38;64.67;100496.77;147790;1147;104549;-74
2021/03/18 00:51:17;;;;;;;20.92;8.90;;;;;;;-0.33;64.97;100500.83;147705;1147;104510;-73
2021/03/18 00:54:20;;;;;;;15.75;6.90;;;;;;;-0.33;64.77;100506.07;147571;1147;104473;-74
2021/03/18 00:57:24;;;;;;;15.38;8.23;;;;;;;-0.36;64.50;100494.91;147675;1148;104496;-74
2021/03/18 01:00:31;;;;;;;24.73;10.23;;;;;;;-0.33;65.38;100494.74;147673;1147;104582;-76
2021/03/18 01:03:36;;;;;;;16.87;7.92;;;;;;;-0.34;64.43;100493.06;147615;1147;104470;-76
2021/03/18 01:06:40;;;;;;;29.40;12.05;;;;;;;-0.34;64.86;100493.06;147676;1147;104614;-75
2021/03/18 01:09:43;;;;;;;39.88;16.93;;;;;;;-0.30;64.28;100495.44;147741;1147;104558;-73
2021/03/18 01:12:46;;;;;;;70.50;29.02;;;;;;;-0.23;64.57;100485.50;147498;1147;104519;-75
2021/03/18 01:15:51;;;;;;;50.92;21.87;;;;;;;-0.20;64.91;100485.33;147621;1147;104519;-78
2021/03/18 01:18:57;;;;;;;36.50;15.80;;;;;;;-0.16;65.11;100486.86;147617;1147;104489;-76
2021/03/18 01:22:00;;;;;;;23.77;9.53;;;;;;;-0.15;64.89;100488.58;147527;1147;104612;-77
2021/03/18 01:25:05;;;;;;;31.93;13.40;;;;;;;-0.16;64.58;100486.86;147668;1147;104500;-78
2021/03/18 01:28:10;;;;;;;25.10;11.70;;;;;;;-0.11;64.91;100494.52;147700;1147;104557;-81
2021/03/18 01:31:13;;;;;;;26.13;13.50;;;;;;;-0.06;64.45;100492.48;147690;1148;104525;-79
2021/03/18 01:34:17;;;;;;;30.50;15.55;;;;;;;-0.02;64.91;100487.02;147619;1148;104511;-77
2021/03/18 01:37:20;;;;;;;64.55;25.95;;;;;;;-0.03;64.90;100487.09;147674;1147;104540;-76
2021/03/18 01:40:27;;;;;;;29.20;13.88;;;;;;;-0.03;64.43;100498.42;147468;1147;104523;-76
2021/03/18 01:43:31;;;;;;;29.97;13.17;;;;;;;-0.04;64.48;100488.88;147495;1148;104892;-82
2021/03/18 01:46:35;;;;;;;38.02;17.77;;;;;;;-0.05;64.63;100494.19;147754;1148;104448;-79
2021/03/18 01:49:38;;;;;;;32.58;11.50;;;;;;;-0.13;65.07;100504.23;147736;1147;104563;-83
2021/03/18 01:52:43;;;;;;;23.87;10.10;;;;;;;-0.20;65.12;100495.82;147665;1147;104590;-81
2021/03/18 01:55:48;;;;;;;24.12;10.18;;;;;;;-0.18;65.33;100498.37;147491;1147;104579;-77
2021/03/18 01:58:52;;;;;;;29.40;12.27;;;;;;;-0.20;65.80;100494.03;147753;1146;104475;-79
2021/03/18 02:01:55;;;;;;;38.60;15.50;;;;;;;-0.19;65.70;100489.66;147767;1147;104959;-78
2021/03/18 02:04:58;;;;;;;23.23;9.97;;;;;;;-0.10;66.40;100494.41;147811;1148;104447;-76
2021/03/18 02:08:03;;;;;;;22.15;9.00;;;;;;;-0.04;65.89;100486.25;147721;1148;104574;-76
2021/03/18 02:11:07;;;;;;;34.15;16.95;;;;;;;0.12;66.44;100481.04;147800;1147;104512;-76
2021/03/18 02:14:10;;;;;;;24.23;12.55;;;;;;;0.21;65.84;100484.09;147803;1148;104452;-73
2021/03/18 02:17:22;;;;;;;28.95;11.00;;;;;;;0.28;66.17;100488.94;147739;1147;104522;-74
2021/03/18 02:21:09;;;;;;;19.37;8.15;;;;;;;0.27;66.35;100489.02;147779;1146;104542;-74
2021/03/18 02:24:22;;;;;;;16.23;7.60;;;;;;;0.26;66.52;100487.34;147778;1147;104506;-83
2021/03/18 02:27:54;;;;;;;24.07;11.63;;;;;;;0.33;66.11;100481.67;147787;1147;104534;-77
2021/03/18 02:30:59;;;;;;;;;;;;;;;0.42;65.93;100482.11;147760;1147;104593;-73
2021/03/18 02:34:28;;;;;;;16.40;7.17;;;;;;;0.45;67.31;100474.91;147404;1147;104515;-73
2021/03/18 02:37:33;;;;;;;17.07;7.90;;;;;;;0.45;66.30;100476.70;147749;1147;104547;-73
2021/03/18 02:40:40;;;;;;;15.97;7.47;;;;;;;0.53;66.25;100469.25;147853;1148;104628;-75
2021/03/18 02:43:47;;;;;;;15.00;6.90;;;;;;;0.55;65.94;100472.64;147800;1147;104469;-75
2021/03/18 02:46:59;;;;;;;21.57;8.80;;;;;;;0.54;66.12;100482.30;147813;1147;104449;-74
2021/03/18 02:50:04;;;;;;;19.85;10.25;;;;;;;0.51;66.06;100474.58;147778;1147;104545;-73
2021/03/18 02:53:08;;;;;;;22.93;9.60;;;;;;;0.46;66.19;100471.34;147783;1147;104538;-75
2021/03/18 02:56:15;;;;;;;16.60;9.07;;;;;;;0.39;66.33;100472.62;147702;1147;104610;-77
2021/03/18 02:59:24;;;;;;;16.10;7.17;;;;;;;0.38;66.41;100460.42;147787;1147;104625;-76
2021/03/18 03:02:29;;;;;;;12.63;6.28;;;;;;;0.36;65.64;100463.12;147764;1147;104470;-76
2021/03/18 03:05:33;;;;;;;45.60;19.10;;;;;;;0.25;65.93;100470.75;147799;1147;104659;-76
2021/03/18 03:08:37;;;;;;;14.13;7.75;;;;;;;0.10;66.60;100472.41;147771;1147;104487;-74
2021/03/18 03:11:42;;;;;;;12.68;7.22;;;;;;;-0.05;66.96;100474.05;147792;1147;104649;-77
2021/03/18 03:14:47;;;;;;;14.43;8.33;;;;;;;-0.02;66.63;100481.77;147968;1146;104564;-78
2021/03/18 03:17:51;;;;;;;24.05;10.88;;;;;;;0.10;67.24;100479.44;147864;1146;104563;-81
2021/03/18 03:20:56;;;;;;;18.23;9.03;;;;;;;0.20;67.21;100483.26;147889;1147;104553;-81
2021/03/18 03:24:01;;;;;;;33.42;14.68;;;;;;;0.23;66.94;100482.23;147944;1147;104391;-80
2021/03/18 03:27:06;;;;;;;14.25;7.45;;;;;;;0.29;66.99;100476.66;147984;1147;104855;-82
2021/03/18 03:30:11;;;;;;;14.33;7.85;;;;;;;0.34;67.05;100475.48;147626;1147;104461;-78
2021/03/18 03:33:15;;;;;;;14.03;7.67;;;;;;;0.41;67.39;100467.30;147799;1146;104862;-81
2021/03/18 03:36:19;;;;;;;18.10;9.38;;;;;;;0.45;66.87;100464.41;147779;1147;104489;-77
2021/03/18 03:39:22;;;;;;;58.65;25.40;;;;;;;0.51;66.74;100460.61;147767;1148;104549;-77
2021/03/18 03:42:25;;;;;;;28.90;11.63;;;;;;;0.56;66.57;100464.69;147749;1147;104538;-77
2021/03/18 03:45:29;;;;;;;20.43;11.65;;;;;;;0.58;66.75;100461.98;147816;1147;104576;-76
2021/03/18 03:48:34;;;;;;;18.57;10.25;;;;;;;0.53;67.14;100458.75;147837;1147;104538;-76
2021/03/18 03:51:50;;;;;;;20.77;10.60;;;;;;;0.52;67.00;100462.29;147823;1147;104560;-78
2021/03/18 03:55:00;;;;;;;23.53;11.50;;;;;;;0.57;66.88;100457.64;147773;1147;104535;-75
2021/03/18 03:58:15;;;;;;;19.10;9.67;;;;;;;0.64;67.17;100464.27;147682;1146;104707;-78
2021/03/18 04:01:26;;;;;;;52.62;23.95;;;;;;;0.69;67.22;100459.58;147827;1147;104480;-84
2021/03/18 04:04:33;;;;;;;45.28;18.35;;;;;;;0.71;67.48;100467.37;147645;1147;104496;-75
2021/03/18 04:07:39;;;;;;;37.60;14.20;;;;;;;0.64;67.36;100469.52;147561;1147;104469;-76
2021/03/18 04:10:44;;;;;;;55.12;20.55;;;;;;;0.62;67.41;100470.51;147777;1147;104535;-76
2021/03/18 04:13:50;;;;;;;62.90;20.82;;;;;;;0.62;67.87;100462.63;147617;1147;104643;-83
2021/03/18 04:16:56;;;;;;;64.27;23.87;;;;;;;0.59;68.19;100474.16;147587;1147;104589;-84
2021/03/18 04:20:02;;;;;;;32.50;14.07;;;;;;;0.50;68.67;100472.03;147402;1147;104470;-81
2021/03/18 04:23:10;;;;;;;84.87;36.53;;;;;;;0.42;69.28;100482.95;147690;1148;104463;-80
2021/03/18 04:26:13;;;;;;;92.00;35.73;;;;;;;0.30;68.73;100473.95;147807;1147;104547;-78
2021/03/18 04:29:17;;;;;;;82.02;36.73;;;;;;;0.27;69.32;100475.89;147591;1147;104604;-75
2021/03/18 04:32:22;;;;;;;92.05;42.27;;;;;;;0.24;69.55;100473.45;147510;1148;104587;-78
2021/03/18 04:35:27;;;;;;;30.17;15.98;;;;;;;0.15;68.94;100474.77;147608;1147;104537;-75
2021/03/18 04:38:31;;;;;;;55.43;30.53;;;;;;;0.10;69.31;100476.81;147530;1147;104495;-77
2021/03/18 04:41:37;;;;;;;74.42;37.40;;;;;;;0.07;70.46;100482.20;147637;1147;104493;-75
2021/03/18 04:44:43;;;;;;;37.88;20.40;;;;;;;0.01;69.77;100474.66;147379;1147;104758;-76
2021/03/18 04:47:49;;;;;;;34.73;19.62;;;;;;;0.06;69.81;100475.25;147646;1146;104626;-76
2021/03/18 04:50:52;;;;;;;27.20;16.23;;;;;;;0.10;69.63;100468.94;147799;1147;104579;-75
2021/03/18 04:53:57;;;;;;;23.55;13.18;;;;;;;0.06;69.76;100470.87;147766;1147;104460;-77
2021/03/18 04:57:02;;;;;;;33.18;17.82;;;;;;;0.04;69.84;100477.11;147639;1147;104521;-75
2021/03/18 05:00:08;;;;;;;29.60;16.90;;;;;;;0.01;69.79;100474.66;147819;1147;104730;-76
2021/03/18 05:03:14;;;;;;;35.60;21.33;;;;;;;0.00;69.85;100468.58;147603;1148;104663;-81
2021/03/18 05:06:20;;;;;;;30.32;16.27;;;;;;;0.03;69.72;100471.02;147817;1146;104547;-80
2021/03/18 05:09:24;;;;;;;32.10;18.90;;;;;;;0.08;70.15;100470.77;147747;1147;104479;-76
2021/03/18 05:12:28;;;;;;;32.50;20.15;;;;;;;0.05;70.12;100469.16;147792;1147;104547;-76
2021/03/18 05:15:32;;;;;;;43.80;19.30;;;;;;;0.09;69.51;100475.10;147667;1146;104496;-76
2021/03/18 05:18:35;;;;;;;33.10;18.80;;;;;;;0.23;69.45;100469.95;147869;1148;104659;-76
2021/03/18 05:21:40;;;;;;;21.90;12.20;;;;;;;0.37;69.22;100454.33;147628;1147;104492;-77
2021/03/18 05:24:44;;;;;;;22.05;11.55;;;;;;;0.47;69.22;100469.59;147757;1147;104457;-76
2021/03/18 05:27:47;;;;;;;24.35;14.75;;;;;;;0.51;69.28;100463.23;147526;1147;104512;-78
2021/03/18 05:30:51;;;;;;;19.40;10.98;;;;;;;0.56;68.83;100463.84;147644;1147;104618;-78
2021/03/18 05:33:54;;;;;;;20.10;11.80;;;;;;;0.58;69.03;100464.61;147660;1147;104475;-77
2021/03/18 05:36:57;;;;;;;20.55;12.45;;;;;;;0.61;69.05;100461.80;147562;1147;104467;-79
2021/03/18 05:40:01;;;;;;;34.73;16.75;;;;;;;0.63;69.12;100475.68;147773;1146;104584;-78
2021/03/18 05:43:06;;;;;;;20.15;11.75;;;;;;;0.68;68.87;100468.41;147781;1147;104457;-78
2021/03/18 05:46:09;;;;;;;20.15;11.53;;;;;;;0.69;68.72;100472.71;147760;1146;104594;-77
2021/03/18 05:49:13;;;;;;;20.08;10.58;;;;;;;0.58;69.43;100464.61;147546;1148;104522;-77
2021/03/18 05:52:17;;;;;;;17.87;10.60;;;;;;;0.52;69.35;100467.54;147507;1148;104556;-78
2021/03/18 05:55:22;;;;;;;16.65;10.85;;;;;;;0.52;69.20;100467.54;147512;1147;104559;-75
2021/03/18 05:58:26;;;;;;;16.37;10.20;;;;;;;0.52;69.83;100471.03;147587;1147;104499;-75
2021/03/18 06:01:30;;;;;;;17.23;11.28;;;;;;;0.50;69.38;100474.66;147658;1148;104505;-76
2021/03/18 06:04:33;;;;;;;15.85;10.30;;;;;;;0.49;69.63;100472.98;147661;1147;104550;-75
2021/03/18 06:07:40;;;;;;;21.85;11.22;;;;;;;0.53;68.75;100474.50;147752;1147;104547;-73
2021/03/18 06:10:43;;;;;;;19.65;11.10;;;;;;;0.55;69.46;100476.10;147809;1147;104470;-77
2021/03/18 06:13:46;;;;;;;17.25;10.03;;;;;;;0.56;69.27;100479.59;147776;1147;104652;-74
2021/03/18 06:16:50;;;;;;;18.25;10.95;;;;;;;0.57;69.70;100474.23;147682;1147;104545;-74
2021/03/18 06:19:54;;;;;;;19.27;10.75;;;;;;;0.62;69.50;100473.13;147766;1147;104545;-76
2021/03/18 06:22:59;;;;;;;20.70;10.90;;;;;;;0.61;69.38;100480.17;147815;1148;104541;-76
2021/03/18 06:26:03;;;;;;;18.50;10.48;;;;;;;0.54;69.98;100474.42;147738;1147;104482;-77
2021/03/18 06:29:26;;;;;;;26.77;12.88;;;;;;;0.55;69.59;100478.73;147692;1147;104812;-82
2021/03/18 06:32:29;;;;;;;35.68;16.05;;;;;;;0.56;69.96;100490.10;147585;1147;104671;-76
2021/03/18 06:35:32;;;;;;;34.13;15.75;;;;;;;0.59;69.91;100488.13;147628;1147;104452;-78
2021/03/18 06:38:36;;;;;;;32.03;14.53;;;;;;;0.68;69.99;100486.80;147704;1147;104559;-77
2021/03/18 06:41:41;;;;;;;25.75;13.95;;;;;;;0.72;69.91;100485.69;147666;1147;104547;-79
2021/03/18 06:44:44;;;;;;;36.95;17.48;;;;;;;0.78;69.72;100489.76;147772;1147;104474;-72
2021/03/18 06:47:51;;;;;;;21.75;12.23;;;;;;;0.83;70.05;100492.12;147745;1147;104620;-72
2021/03/18 06:50:54;;;;;;;21.25;11.30;;;;;;;0.87;69.88;100496.30;147842;1147;104916;-72
2021/03/18 06:53:57;;;;;;;40.90;18.70;;;;;;;0.88;70.66;100498.81;147711;1147;104477;-73
2021/03/18 06:57:02;;;;;;;34.63;16.87;;;;;;;0.95;69.80;100488.83;147769;1147;104558;-73
2021/03/18 07:00:10;;;;;;;18.60;11.23;;;;;;;1.03;69.24;100502.38;147732;1147;104545;-69
2021/03/18 07:03:24;;;;;;;32.08;16.23;;;;;;;1.09;69.64;100482.79;147823;1147;104532;-72
2021/03/18 07:06:30;;;;;;;18.30;10.20;;;;;;;1.28;69.36;100486.06;147795;1148;104982;-72
2021/03/18 07:09:34;;;;;;;19.27;11.73;;;;;;;1.50;69.38;100493.58;147758;1147;104542;-74
2021/03/18 07:12:37;;;;;;;16.02;9.80;;;;;;;1.70;69.17;100491.55;147782;1146;104549;-71
2021/03/18 07:15:40;;;;;;;13.98;9.78;;;;;;;1.78;67.91;100491.94;147582;1147;104544;-76
2021/03/18 07:18:56;;;;;;;14.17;9.87;;;;;;;1.82;68.31;100489.98;147800;1146;104735;-71
2021/03/18 07:22:00;;;;;;;18.30;10.78;;;;;;;1.83;68.08;100489.89;147788;1147;104515;-71
2021/03/18 07:25:10;;;;;;;16.12;10.05;;;;;;;1.87;68.75;100494.03;147794;1147;104604;-74
2021/03/18 07:28:14;;;;;;;15.32;10.10;;;;;;;1.90;67.75;100485.94;147743;1147;104546;-76
2021/03/18 07:31:19;;;;;;;14.00;9.53;;;;;;;1.93;68.40;100488.39;147823;1147;104487;-74
2021/03/18 07:34:25;;;;;;;14.63;8.80;;;;;;;1.93;66.92;100483.13;147755;1146;104709;-73
2021/03/18 07:37:28;;;;;;;15.43;9.33;;;;;;;1.91;68.18;100486.80;147516;1147;104558;-72
2021/03/18 07:40:32;;;;;;;15.20;9.08;;;;;;;2.06;67.80;100487.64;147750;1146;104469;-71
2021/03/18 07:43:37;;;;;;;16.73;11.33;;;;;;;2.26;67.66;100495.19;147643;1147;104508;-73
2021/03/18 07:46:41;;;;;;;15.40;10.55;;;;;;;2.56;68.04;100473.17;147483;1148;104473;-72
2021/03/18 07:49:47;;;;;;;14.70;8.53;;;;;;;2.71;65.10;100480.11;147731;1146;104592;-72
2021/03/18 07:52:51;;;;;;;14.13;8.15;;;;;;;2.81;65.19;100474.23;147353;1147;104553;-71
2021/03/18 07:55:55;;;;;;;13.53;8.68;;;;;;;2.92;65.76;100479.66;147458;1147;104557;-72
2021/03/18 07:59:07;;;;;;;10.73;7.87;;;;;;;2.79;65.51;100474.35;147570;1147;104505;-72
2021/03/18 08:02:17;;;;;;;13.38;9.78;;;;;;;2.64;65.91;100477.95;147723;1147;104502;-72
2021/03/18 08:05:39;;;;;;;12.95;9.63;;;;;;;2.42;64.85;100475.80;147676;1147;104529;-74
2021/03/18 08:08:43;;;;;;;8.55;6.20;;;;;;;2.32;65.37;100463.20;147439;1147;104521;-74
2021/03/18 08:11:47;;;;;;;9.95;6.35;;;;;;;2.40;65.27;100462.73;147639;1147;104574;-72
2021/03/18 08:15:34;;;;;;;11.08;7.55;;;;;;;2.51;65.07;100465.54;147781;1147;104604;-72
2021/03/18 08:18:41;;;;;;;11.12;7.20;;;;;;;2.83;64.71;100464.44;147789;1148;104489;-72
2021/03/18 08:21:46;;;;;;;9.90;6.90;;;;;;;3.05;63.57;100470.02;147791;1147;104583;-72
2021/03/18 08:24:50;;;;;;;9.27;6.20;;;;;;;3.05;63.58;100467.38;147780;1147;104577;-73
2021/03/18 08:27:53;;;;;;;8.75;5.80;;;;;;;3.10;61.69;100473.22;147741;1148;104458;-72
2021/03/18 08:30:57;;;;;;;8.83;5.45;;;;;;;3.00;64.54;100474.73;147415;1147;104650;-73
2021/03/18 08:34:02;;;;;;;8.98;5.37;;;;;;;2.99;64.02;100475.70;147551;1147;105030;-73
2021/03/18 08:37:05;;;;;;;7.37;4.90;;;;;;;2.98;62.28;100471.36;147755;1147;104597;-73
2021/03/18 08:40:26;;;;;;;13.40;7.37;;;;;;;3.05;62.84;100477.93;147773;1147;104540;-72
2021/03/18 08:43:29;;;;;;;10.63;6.17;;;;;;;2.99;62.96;100478.33;147631;1148;104892;-73
2021/03/18 08:46:40;;;;;;;7.08;4.85;;;;;;;2.86;61.37;100464.25;147759;1147;104457;-73
2021/03/18 08:49:45;;;;;;;7.17;5.17;;;;;;;2.97;62.83;100472.31;147836;1147;104547;-71
2021/03/18 08:52:49;;;;;;;7.70;5.22;;;;;;;3.20;62.96;100470.82;147688;1148;104580;-74
2021/03/18 08:55:52;;;;;;;10.30;6.37;;;;;;;3.28;59.80;100471.16;147783;1147;104460;-75
2021/03/18 08:58:56;;;;;;;7.92;5.30;;;;;;;3.07;62.43;100468.13;147767;1147;104541;-72
2021/03/18 09:02:08;;;;;;;6.75;4.40;;;;;;;2.89;62.41;100470.17;147735;1147;104992;-72
2021/03/18 09:05:14;;;;;;;;;;;;;;;2.73;62.03;100466.81;147834;1146;104452;-72
2021/03/18 09:08:23;;;;;;;6.42;4.00;;;;;;;2.70;62.26;100473.13;147429;1147;104719;-72
2021/03/18 09:11:27;;;;;;;7.17;4.33;;;;;;;2.88;61.70;100460.56;147787;1147;104865;-75
2021/03/18 09:14:31;;;;;;;4.85;3.00;;;;;;;3.20;57.67;100457.64;147774;1148;104451;-73
2021/03/18 09:17:35;;;;;;;5.85;2.95;;;;;;;3.50;57.87;100454.77;147871;1146;104544;-76
2021/03/18 09:20:39;;;;;;;3.83;2.25;;;;;;;3.68;60.58;100449.20;147707;1147;104449;-72
2021/03/18 09:23:44;;;;;;;24.17;11.03;;;;;;;3.87;59.30;100441.70;147714;1147;104557;-73
2021/03/18 09:26:47;;;;;;;7.25;4.10;;;;;;;4.06;59.20;100446.56;147772;1147;104470;-73
2021/03/18 09:29:50;;;;;;;4.92;3.15;;;;;;;4.14;58.40;100464.52;147540;1147;104534;-72
2021/03/18 09:32:55;;;;;;;13.13;7.35;;;;;;;4.25;59.52;100450.54;147471;1146;104455;-73
2021/03/18 09:36:00;;;;;;;5.17;3.10;;;;;;;4.16;56.66;100457.33;147400;1147;104547;-74
2021/03/18 09:39:06;;;;;;;2.90;2.25;;;;;;;4.08;59.12;100449.08;147331;1147;104617;-80
2021/03/18 09:42:10;;;;;;;4.30;2.30;;;;;;;4.10;57.45;100455.13;147655;1145;104556;-81
2021/03/18 09:45:20;;;;;;;4.25;2.20;;;;;;;4.13;57.67;100445.16;147547;1147;104479;-72
2021/03/18 09:48:29;;;;;;;18.03;9.00;;;;;;;4.30;58.84;100449.27;147773;1147;104545;-76
2021/03/18 09:51:37;;;;;;;15.80;7.67;;;;;;;4.34;57.63;100449.90;147818;1147;104550;-73
2021/03/18 09:54:40;;;;;;;6.67;3.60;;;;;;;4.39;57.45;100441.64;147709;1146;104646;-74
2021/03/18 09:57:43;;;;;;;5.10;3.15;;;;;;;4.49;56.79;100442.70;147928;1147;104594;-74
2021/03/18 10:00:47;;;;;;;3.92;2.65;;;;;;;4.37;57.14;100438.27;147776;1146;104526;-72
2021/03/18 10:03:58;;;;;;;5.00;3.12;;;;;;;4.40;54.95;100436.25;147812;1147;104934;-73
2021/03/18 10:07:00;;;;;;;;;;;;;;;4.41;57.27;100440.59;147654;1146;104450;-72
2021/03/18 10:10:05;;;;;;;5.57;3.63;;;;;;;4.42;55.10;100447.55;147673;1147;104482;-72
2021/03/18 10:13:09;;;;;;;4.20;3.27;;;;;;;4.30;55.58;100437.87;147852;1147;104460;-72
2021/03/18 10:16:12;;;;;;;7.87;3.75;;;;;;;4.11;56.91;100440.95;147834;1147;104473;-75
2021/03/18 10:19:17;;;;;;;7.10;4.92;;;;;;;3.98;55.14;100448.87;147681;1145;104460;-72
2021/03/18 10:22:22;;;;;;;6.10;4.30;;;;;;;3.92;56.30;100428.17;147731;1147;104478;-71
2021/03/18 10:25:27;;;;;;;4.87;3.77;;;;;;;4.04;56.52;100432.63;147313;1148;104552;-74
2021/03/18 10:28:32;;;;;;;5.17;3.90;;;;;;;4.20;57.32;100421.83;147776;1147;104547;-74
2021/03/18 10:31:37;;;;;;;10.98;7.35;;;;;;;4.05;55.15;100426.38;147871;1146;104448;-75
2021/03/18 10:34:52;;;;;;;13.55;7.60;;;;;;;3.91;55.89;100426.50;147855;1147;104473;-74
2021/03/18 10:37:55;;;;;;;10.20;6.00;;;;;;;3.70;54.36;100419.10;147874;1147;104470;-72
2021/03/18 10:41:04;;;;;;;28.83;11.85;;;;;;;3.53;56.09;100419.41;147637;1147;104633;-73
2021/03/18 10:44:07;;;;;;;8.98;5.70;;;;;;;3.63;57.02;100417.82;147556;1147;104969;-78
2021/03/18 10:47:18;;;;;;;6.10;4.40;;;;;;;3.72;54.85;100405.80;147596;1147;104542;-79
2021/03/18 10:50:25;;;;;;;5.70;4.45;;;;;;;3.78;56.67;100415.94;147581;1147;104543;-83
2021/03/18 10:53:28;;;;;;;5.65;4.25;;;;;;;3.86;54.64;100413.61;147815;1147;104531;-80
2021/03/18 10:56:31;;;;;;;7.25;4.62;;;;;;;3.89;56.28;100402.84;147783;1147;104552;-80
2021/03/18 10:59:34;;;;;;;6.35;4.67;;;;;;;4.08;55.14;100412.11;147709;1147;104604;-83
2021/03/18 11:02:39;;;;;;;7.23;5.00;;;;;;;4.29;56.83;100402.69;147623;1147;104582;-80
2021/03/18 11:05:52;;;;;;;66.70;33.65;;;;;;;4.54;56.41;100406.20;147637;1146;104515;-85
2021/03/18 11:08:57;;;;;;;99.62;51.20;;;;;;;4.80;57.21;100395.55;147538;1148;104548;-84
2021/03/18 11:12:01;;;;;;;17.10;10.10;;;;;;;4.86;55.11;100392.45;147594;1147;104659;-83
2021/03/18 11:15:07;;;;;;;8.13;5.67;;;;;;;4.84;54.94;100391.72;147896;1146;104578;-82
2021/03/18 11:18:11;;;;;;;16.70;11.22;;;;;;;4.98;55.31;100380.95;147891;1147;104549;-80
2021/03/18 11:21:23;;;;;;;80.03;37.53;;;;;;;5.16;56.09;100380.53;147791;1147;104543;-81
2021/03/18 11:24:28;;;;;;;13.80;6.53;;;;;;;5.20;55.41;100374.91;147849;1148;104492;-78
2021/03/18 11:27:32;;;;;;;7.63;4.50;;;;;;;4.98;52.86;100375.66;147498;1147;104454;-84
2021/03/18 11:30:37;;;;;;;6.83;3.93;;;;;;;4.70;54.68;100383.00;147657;1147;104479;-80
2021/03/18 11:33:40;;;;;;;9.08;5.20;;;;;;;4.63;55.43;100371.17;147772;1147;104457;-83
2021/03/18 11:36:45;;;;;;;6.60;3.85;;;;;;;4.57;54.71;100368.16;147734;1147;104532;-82
2021/03/18 11:39:48;;;;;;;5.28;3.90;;;;;;;4.43;54.17;100374.44;147470;1147;104513;-82
2021/03/18 11:42:51;;;;;;;6.43;4.60;;;;;;;4.09;55.33;100371.56;147759;1146;104602;-81
2021/03/18 11:45:56;;;;;;;4.73;3.40;;;;;;;4.00;53.64;100369.56;147964;1147;104439;-83
2021/03/18 11:49:00;;;;;;;6.60;4.67;;;;;;;4.03;54.42;100366.72;147739;1147;104458;-80
2021/03/18 11:52:04;;;;;;;6.20;4.30;;;;;;;4.22;54.83;100361.81;147722;1147;104589;-80
2021/03/18 11:55:09;;;;;;;6.92;4.67;;;;;;;4.54;55.94;100348.06;147711;1147;104544;-79
2021/03/18 11:58:13;;;;;;;5.15;3.80;;;;;;;4.80;55.17;100342.67;147806;1148;104508;-82
2021/03/18 12:01:17;;;;;;;8.15;5.53;;;;;;;4.98;55.57;100332.52;147910;1147;104529;-85
2021/03/18 12:04:20;;;;;;;95.25;62.78;;;;;;;5.14;55.33;100332.20;147723;1146;104444;-83
2021/03/18 12:07:23;;;;;;;22.07;12.07;;;;;;;5.16;54.28;100330.27;147673;1147;104492;-74
2021/03/18 12:10:26;;;;;;;10.47;6.30;;;;;;;4.91;53.35;100329.50;147525;1147;104585;-83
2021/03/18 12:13:29;;;;;;;4.90;3.58;;;;;;;4.76;54.86;100330.64;147496;1146;105145;-80
2021/03/18 12:16:33;;;;;;;44.45;23.67;;;;;;;4.74;53.90;100320.18;147504;1146;104451;-82
2021/03/18 12:19:36;;;;;;;26.30;13.35;;;;;;;4.46;52.53;100330.12;147507;1147;104530;-82
2021/03/18 12:22:39;;;;;;;20.62;10.93;;;;;;;4.21;51.24;100332.86;147497;1148;104476;-84
2021/03/18 12:25:42;;;;;;;10.00;5.95;;;;;;;3.95;55.52;100332.10;147670;1147;104544;-85
2021/03/18 12:28:45;;;;;;;8.33;4.95;;;;;;;3.74;55.66;100333.48;147580;1147;104553;-83
2021/03/18 12:31:49;;;;;;;7.20;4.30;;;;;;;3.70;56.68;100325.91;147632;1146;104535;-85
2021/03/18 12:34:52;;;;;;;6.80;4.90;;;;;;;3.74;57.01;100324.73;147762;1146;104931;-81
2021/03/18 12:37:55;;;;;;;21.00;13.20;;;;;;;3.78;56.40;100314.80;147574;1147;104888;-81
2021/03/18 12:40:58;;;;;;;13.40;8.48;;;;;;;3.85;56.79;100326.59;147904;1147;104473;-83
2021/03/18 12:44:01;;;;;;;9.00;5.67;;;;;;;3.83;57.03;100332.01;147676;1148;104589;-76
2021/03/18 12:47:04;;;;;;;56.15;32.55;;;;;;;3.88;57.20;100329.87;147817;1147;104543;-78
2021/03/18 12:50:12;;;;;;;27.50;15.80;;;;;;;3.96;57.48;100325.85;147759;1148;104547;-77
2021/03/18 12:53:15;;;;;;;13.98;7.85;;;;;;;4.09;57.37;100324.03;147702;1148;104502;-74
2021/03/18 12:56:19;;;;;;;54.95;25.10;;;;;;;4.08;56.77;100327.61;147762;1147;104457;-77
2021/03/18 12:59:22;;;;;;;17.85;8.50;;;;;;;4.07;56.63;100316.20;147482;1147;105117;-76
2021/03/18 13:02:25;;;;;;;10.87;5.97;;;;;;;4.09;56.08;100311.66;147337;1147;104452;-75
2021/03/18 13:05:29;;;;;;;9.93;6.23;;;;;;;4.15;57.01;100307.73;147600;1147;104828;-75
2021/03/18 13:08:32;;;;;;;8.50;5.07;;;;;;;4.21;55.66;100315.21;147735;1148;104547;-74
2021/03/18 13:11:36;;;;;;;42.45;24.45;;;;;;;4.05;57.02;100312.00;147753;1147;104479;-75
2021/03/18 13:14:39;;;;;;;20.70;11.28;;;;;;;3.91;57.32;100312.99;147809;1146;104515;-75
2021/03/18 13:17:44;;;;;;;14.07;7.40;;;;;;;3.72;57.55;100322.19;147711;1147;104547;-73
2021/03/18 13:20:47;;;;;;;7.77;4.57;;;;;;;3.47;58.50;100312.50;147767;1148;104506;-76
2021/03/18 13:23:50;;;;;;;89.97;46.13;;;;;;;3.46;58.84;100315.24;147697;1147;104463;-77
2021/03/18 13:26:54;;;;;;;100.47;52.00;;;;;;;3.43;58.77;100311.03;147864;1146;104477;-75
2021/03/18 13:29:57;;;;;;;52.78;31.07;;;;;;;3.45;59.24;100306.49;147739;1147;104599;-75
2021/03/18 13:33:00;;;;;;;34.45;19.00;;;;;;;3.47;58.62;100306.39;147751;1146;104547;-75
2021/03/18 13:36:04;;;;;;;17.67;10.53;;;;;;;3.54;59.04;100308.50;147783;1147;104447;-75
2021/03/18 13:39:08;;;;;;;24.20;15.35;;;;;;;3.51;59.69;100306.06;147337;1147;104482;-74
2021/03/18 13:42:11;;;;;;;12.03;7.17;;;;;;;3.54;59.63;100312.91;147591;1146;104502;-76
2021/03/18 13:45:15;;;;;;;11.05;7.70;;;;;;;3.43;61.66;100315.47;147761;1147;104473;-78
2021/03/18 13:48:19;;;;;;;9.95;7.15;;;;;;;2.96;63.63;100312.46;147870;1146;104622;-76
2021/03/18 13:51:22;;;;;;;8.30;6.05;;;;;;;2.90;61.62;100308.44;147723;1147;104534;-75
2021/03/18 13:54:26;;;;;;;7.33;5.23;;;;;;;2.88;61.46;100299.80;147765;1146;104498;-76
2021/03/18 13:57:29;;;;;;;7.90;5.35;;;;;;;2.81;63.06;100303.81;147803;1147;104550;-75
2021/03/18 14:00:34;;;;;;;9.20;5.42;;;;;;;2.96;60.83;100296.64;147966;1147;104869;-74